Accueil
METAR-TAF:

METAR-TAF

Aéroports :

Seldovia, Alaska, États-Unis

latitude: 59-27N, longitude: 151-42W, altitude: 9 m

Observation

Le bulletin a été fait il y a 1 heure et 3 minutes, à 14:53 UTC
Vent calme
Température -2°C
Humidité 93%
Pression 1031 hPa
Visibilité: 16.1 km
Ciel clair

METAR: PASO 201453Z AUTO 00000KT 10SM CLR M02/M03 A3044 RMK AO2 SLP306 T10171033 51009 TSNO

Heure: 06:56 (15:56 UTC)


TAF: absent

Observations et prévisions météorologiques de plus de 4000 aéroports (messages METAR et TAF).

Les stations disponibles sont représentées par des disques jaunes et rouges sur la carte.

Passer la souris dessus pour voir le nom de la station.

Cliquer dessus pour voir les observations et prévisions météorologiques.

Pour changer de carte: cliquez sur les boutons verts avec une croix noire pour zoomer, sur le bouton vert avec un tiret pour effectuer un zoom arrière, ou sur les flèches vertes pour les cartes adjacentes.


METAR-TAF: